createdAt,value
2018-11-22T00:00:06.648Z,82.37
2018-11-22T00:01:06.635Z,83.42
2018-11-22T00:02:06.609Z,82.66
2018-11-22T00:03:06.582Z,82.47
2018-11-22T00:04:06.562Z,83.23
2018-11-22T00:05:06.543Z,82.85
2018-11-22T00:06:06.524Z,83.04
2018-11-22T00:07:06.498Z,83.04
2018-11-22T00:08:06.477Z,83.04
2018-11-22T00:09:06.466Z,83.61
2018-11-22T00:10:06.434Z,83.61
2018-11-22T00:11:06.416Z,83.61
2018-11-22T00:12:06.128Z,83.98
2018-11-22T00:13:06.108Z,84.46
2018-11-22T00:14:06.352Z,84.27
2018-11-22T00:15:06.335Z,84.36
2018-11-22T00:16:06.310Z,84.94
2018-11-22T00:17:06.288Z,84.84
2018-11-22T00:18:06.281Z,85.22
2018-11-22T00:19:06.248Z,84.84
2018-11-22T00:20:05.962Z,84.94
2018-11-22T00:21:06.256Z,85.13
2018-11-22T00:22:05.930Z,85.78
2018-11-22T00:23:06.193Z,84.84
2018-11-22T00:24:06.140Z,85.6
2018-11-22T00:25:05.859Z,84.94
2018-11-22T00:26:06.094Z,85.31
2018-11-22T00:27:05.814Z,84.84
2018-11-22T00:28:06.057Z,85.41
2018-11-22T00:29:06.035Z,85.22
2018-11-22T00:30:06.013Z,85.41
2018-11-22T00:31:05.992Z,85.31
2018-11-22T00:32:05.971Z,85.03
2018-11-22T00:33:05.685Z,85.5
2018-11-22T00:34:05.927Z,85.22
2018-11-22T00:35:05.907Z,85.22
2018-11-22T00:36:05.619Z,85.31
2018-11-22T00:37:05.595Z,85.6
2018-11-22T00:38:05.842Z,85.69
2018-11-22T00:39:05.820Z,85.88
2018-11-22T00:40:05.803Z,86.16
2018-11-22T00:41:05.775Z,86.26
2018-11-22T00:42:05.490Z,86.07
2018-11-22T00:43:05.739Z,85.5
2018-11-22T00:44:05.453Z,85.6
2018-11-22T00:45:05.697Z,86.64
2018-11-22T00:46:05.681Z,86.35
2018-11-22T00:47:06.650Z,86.26
2018-11-22T00:48:05.630Z,85.97
2018-11-22T00:49:05.607Z,85.88
2018-11-22T00:50:05.587Z,86.16
2018-11-22T00:51:05.562Z,86.55
2018-11-22T00:52:05.544Z,86.64
2018-11-22T00:53:05.260Z,86.26
2018-11-22T00:54:05.236Z,86.64
2018-11-22T00:55:05.477Z,86.55
2018-11-22T00:56:05.460Z,87.12
2018-11-22T00:57:05.175Z,86.74
2018-11-22T00:58:05.417Z,87.49
2018-11-22T00:59:05.395Z,87.49
2018-11-22T01:00:05.112Z,87.4
2018-11-22T01:01:05.354Z,87.59
2018-11-22T01:02:05.064Z,87.4
2018-11-22T01:03:05.315Z,86.93
2018-11-22T01:04:05.025Z,87.3
2018-11-22T01:05:05.269Z,87.21
2018-11-22T01:06:05.248Z,87.49
2018-11-22T01:07:05.226Z,86.64
2018-11-22T01:08:05.245Z,87.02
2018-11-22T01:09:04.921Z,87.4
2018-11-22T01:10:05.164Z,87.49
2018-11-22T01:11:05.151Z,87.49
2018-11-22T01:12:04.858Z,86.64
2018-11-22T01:13:05.102Z,86.07
2018-11-22T01:14:04.814Z,85.97
2018-11-22T01:15:04.791Z,86.16
2018-11-22T01:16:04.770Z,86.16
2018-11-22T01:17:05.016Z,86.16
2018-11-22T01:18:04.729Z,85.97
2018-11-22T01:19:04.708Z,86.07
2018-11-22T01:20:04.954Z,86.07
2018-11-22T01:21:04.949Z,85.88
2018-11-22T01:22:04.652Z,85.97
2018-11-22T01:23:04.887Z,85.97
2018-11-22T01:24:04.652Z,86.45
2018-11-22T01:25:04.585Z,86.64
2018-11-22T01:26:04.826Z,86.64
2018-11-22T01:27:04.810Z,86.55
2018-11-22T01:28:04.804Z,85.5
2018-11-22T01:29:04.760Z,85.78
2018-11-22T01:30:04.478Z,85.78
2018-11-22T01:31:04.718Z,84.94
2018-11-22T01:32:04.710Z,84.94
2018-11-22T01:33:04.680Z,85.5
2018-11-22T01:34:04.652Z,84.94
2018-11-22T01:35:04.639Z,84.84
2018-11-22T01:36:04.615Z,85.03
2018-11-22T01:37:04.589Z,85.41
2018-11-22T01:38:04.578Z,85.69
2018-11-22T01:39:04.550Z,85.13
2018-11-22T01:40:04.526Z,85.22
2018-11-22T01:41:04.505Z,85.13
2018-11-22T01:42:04.489Z,85.03
2018-11-22T01:43:04.468Z,84.84
2018-11-22T01:44:04.177Z,85.69
2018-11-22T01:45:04.426Z,85.13
2018-11-22T01:46:04.409Z,85.31
2018-11-22T01:47:04.387Z,85.03
2018-11-22T01:48:04.358Z,85.22
2018-11-22T01:49:04.334Z,84.84
2018-11-22T01:50:04.326Z,84.84
2018-11-22T01:51:04.037Z,85.31
2018-11-22T01:52:04.008Z,85.22
2018-11-22T01:53:04.259Z,84.94
2018-11-22T01:54:04.234Z,84.55
2018-11-22T01:55:04.216Z,84.84
2018-11-22T01:56:04.211Z,84.65
2018-11-22T01:57:04.171Z,84.36
2018-11-22T01:58:04.148Z,84.84
2018-11-22T01:59:03.861Z,84.46
2018-11-22T02:00:04.101Z,84.74
2018-11-22T02:01:03.818Z,84.55
2018-11-22T02:02:04.066Z,84.08
2018-11-22T02:03:04.075Z,84.08
2018-11-22T02:04:04.018Z,84.17
2018-11-22T02:05:03.998Z,84.55
2018-11-22T02:06:03.985Z,84.65
2018-11-22T02:07:03.958Z,84.55
2018-11-22T02:08:03.945Z,84.55
2018-11-22T02:09:03.653Z,84.17
2018-11-22T02:10:03.890Z,83.98
2018-11-22T02:11:03.878Z,83.89
2018-11-22T02:12:03.852Z,83.98
2018-11-22T02:13:03.567Z,83.8
2018-11-22T02:14:03.813Z,84.08
2018-11-22T02:15:03.783Z,84.46
2018-11-22T02:16:03.767Z,84.46
2018-11-22T02:17:03.482Z,83.98
2018-11-22T02:18:03.723Z,84.55
2018-11-22T02:19:03.704Z,84.27
2018-11-22T02:20:03.681Z,84.36
2018-11-22T02:21:03.664Z,83.89
2018-11-22T02:22:03.650Z,84.08
2018-11-22T02:23:03.356Z,84.36
2018-11-22T02:24:03.604Z,84.55
2018-11-22T02:25:03.632Z,84.94
2018-11-22T02:26:03.553Z,84.36
2018-11-22T02:27:03.545Z,84.65
2018-11-22T02:28:03.251Z,84.46
2018-11-22T02:29:03.497Z,83.7
2018-11-22T02:30:03.473Z,84.27
2018-11-22T02:31:03.452Z,84.46
2018-11-22T02:32:03.428Z,84.84
2018-11-22T02:33:03.142Z,83.98
2018-11-22T02:34:03.382Z,83.7
2018-11-22T02:35:03.363Z,83.98
2018-11-22T02:36:03.343Z,83.98
2018-11-22T02:37:03.326Z,83.89
2018-11-22T02:38:03.307Z,84.36
2018-11-22T02:39:03.277Z,84.46
2018-11-22T02:40:03.257Z,84.74
2018-11-22T02:41:03.239Z,83.8
2018-11-22T02:42:02.951Z,83.98
2018-11-22T02:43:03.197Z,83.04
2018-11-22T02:44:03.174Z,83.23
2018-11-22T02:45:02.901Z,82.94
2018-11-22T02:46:03.131Z,83.04
2018-11-22T02:47:03.115Z,83.42
2018-11-22T02:48:03.092Z,83.7
2018-11-22T02:49:02.811Z,83.8
2018-11-22T02:50:03.053Z,83.23
2018-11-22T02:51:02.779Z,83.04
2018-11-22T02:52:02.737Z,84.17
2018-11-22T02:53:02.992Z,83.98
2018-11-22T02:54:02.964Z,83.61
2018-11-22T02:55:02.954Z,83.98
2018-11-22T02:56:02.660Z,83.98
2018-11-22T02:57:02.665Z,83.61
2018-11-22T02:58:02.879Z,83.61
2018-11-22T02:59:02.594Z,83.04
2018-11-22T03:00:02.572Z,83.13
2018-11-22T03:01:02.813Z,83.04
2018-11-22T03:02:02.786Z,83.61
2018-11-22T03:03:02.804Z,82.85
2018-11-22T03:04:02.497Z,83.32
2018-11-22T03:05:02.477Z,83.61
2018-11-22T03:06:02.703Z,83.7
2018-11-22T03:07:02.633Z,83.61
2018-11-22T03:08:02.664Z,83.51
2018-11-22T03:09:02.386Z,83.7
2018-11-22T03:10:02.621Z,82.66
2018-11-22T03:11:02.342Z,82.75
2018-11-22T03:12:02.587Z,82.47
2018-11-22T03:13:02.566Z,82.37
2018-11-22T03:14:02.279Z,82.85
2018-11-22T03:15:02.517Z,83.13
2018-11-22T03:16:02.246Z,83.04
2018-11-22T03:17:02.213Z,83.23
2018-11-22T03:18:02.192Z,83.32
2018-11-22T03:19:02.435Z,83.04
2018-11-22T03:20:02.414Z,82.66
2018-11-22T03:21:02.125Z,82.66
2018-11-22T03:22:02.101Z,82.66
2018-11-22T03:23:02.091Z,82.66
2018-11-22T03:24:02.328Z,82.56
2018-11-22T03:25:02.306Z,82.18
2018-11-22T03:26:02.296Z,81.9
2018-11-22T03:27:02.008Z,81.9
2018-11-22T03:28:02.241Z,81.9
2018-11-22T03:29:02.218Z,82.05
2018-11-22T03:30:02.202Z,82.05
2018-11-22T03:31:02.191Z,82.33
2018-11-22T03:32:01.903Z,82.85
2018-11-22T03:33:02.136Z,82.66
2018-11-22T03:34:02.111Z,82.75
2018-11-22T03:35:01.849Z,82.56
2018-11-22T03:36:01.809Z,82.66
2018-11-22T03:37:01.788Z,81.9
2018-11-22T03:38:02.032Z,82.62
2018-11-22T03:39:02.017Z,82.66
2018-11-22T03:40:01.722Z,82.66
2018-11-22T03:41:01.974Z,81.9
2018-11-22T03:42:01.680Z,80.86
2018-11-22T03:43:01.922Z,81.71
2018-11-22T03:44:01.901Z,81.05
2018-11-22T03:45:01.883Z,81.33
2018-11-22T03:46:01.591Z,81.62
2018-11-22T03:47:01.833Z,81.76
2018-11-22T03:48:01.551Z,81.9
2018-11-22T03:49:01.795Z,82.14
2018-11-22T03:50:01.769Z,81.99
2018-11-22T03:51:01.763Z,80.86
2018-11-22T03:52:01.476Z,81.24
2018-11-22T03:53:01.707Z,81.38
2018-11-22T03:54:01.421Z,81.24
2018-11-22T03:55:01.665Z,81.29
2018-11-22T03:56:01.381Z,80.76
2018-11-22T03:57:01.623Z,80.63
2018-11-22T03:58:01.341Z,81.24
2018-11-22T03:59:01.586Z,81.14
2018-11-22T04:00:01.303Z,81.57
2018-11-22T04:01:01.554Z,81.05
2018-11-22T04:02:01.258Z,81.01
2018-11-22T04:03:01.512Z,81.62
2018-11-22T04:04:01.482Z,81.52
2018-11-22T04:05:01.207Z,81.29
2018-11-22T04:06:01.166Z,81.2
2018-11-22T04:07:01.411Z,81.14
2018-11-22T04:08:01.132Z,80.86
2018-11-22T04:09:01.103Z,81.1
2018-11-22T04:10:01.351Z,80.25
2018-11-22T04:11:01.324Z,80.53
2018-11-22T04:12:01.304Z,80.1
2018-11-22T04:13:01.288Z,80.06
2018-11-22T04:14:01.265Z,79.96
2018-11-22T04:15:01.251Z,80.25
2018-11-22T04:16:01.228Z,80.44
2018-11-22T04:17:01.202Z,80.38
2018-11-22T04:18:01.177Z,79.96
2018-11-22T04:19:01.154Z,80.38
2018-11-22T04:20:01.134Z,79.96
2018-11-22T04:21:01.114Z,80
2018-11-22T04:22:01.092Z,80.15
2018-11-22T04:23:01.084Z,80.38
2018-11-22T04:24:01.057Z,80.1
2018-11-22T04:25:01.028Z,80.38
2018-11-22T04:26:00.741Z,79.87
2018-11-22T04:27:01.122Z,79.87
2018-11-22T04:28:00.708Z,80
2018-11-22T04:29:00.946Z,79.72
2018-11-22T04:30:00.938Z,79.87
2018-11-22T04:31:00.901Z,79.39
2018-11-22T04:32:00.935Z,79.11
2018-11-22T04:33:00.594Z,78.54
2018-11-22T04:34:00.837Z,78.83
2018-11-22T04:35:00.812Z,78.16
2018-11-22T04:36:00.532Z,78.49
2018-11-22T04:37:00.824Z,79.11
2018-11-22T04:38:00.490Z,78.73
2018-11-22T04:39:00.726Z,78.73
2018-11-22T04:40:00.489Z,78.45
2018-11-22T04:41:00.692Z,78.54
2018-11-22T04:42:00.683Z,78.3
2018-11-22T04:43:00.380Z,77.88
2018-11-22T04:44:00.371Z,77.88
2018-11-22T04:45:00.340Z,77.97
2018-11-22T04:46:00.579Z,77.97
2018-11-22T04:47:00.561Z,77.88
2018-11-22T04:48:00.273Z,78.07
2018-11-22T04:49:00.517Z,77.5
2018-11-22T04:50:00.234Z,77.92
2018-11-22T04:51:00.470Z,78.07
2018-11-22T04:52:00.497Z,77.88
2018-11-22T04:53:00.434Z,77.88
2018-11-22T04:54:00.414Z,78.11
2018-11-22T04:55:00.141Z,77.31
2018-11-22T04:56:00.100Z,77.45
2018-11-22T04:57:00.344Z,77.4
2018-11-22T04:58:00.059Z,77.59
2018-11-22T04:59:00.039Z,77.5
2018-11-22T05:00:00.045Z,77.83
2018-11-22T05:01:00.261Z,77.5
2018-11-22T05:02:00.475Z,77.59
2018-11-22T05:03:00.213Z,77.31
2018-11-22T05:04:00.199Z,77.31
2018-11-22T05:04:59.911Z,77.12
2018-11-22T05:06:00.155Z,77.5
2018-11-22T05:07:00.334Z,77.4
2018-11-22T05:08:00.111Z,77.4
2018-11-22T05:09:00.097Z,77.59
2018-11-22T05:09:59.801Z,77.4
2018-11-22T05:10:59.778Z,77.5
2018-11-22T05:12:00.032Z,77.5
2018-11-22T05:13:00.003Z,76.87
2018-11-22T05:13:59.980Z,76.08
2018-11-22T05:14:59.965Z,76.46
2018-11-22T05:15:59.938Z,76.55
2018-11-22T05:16:59.912Z,76.74
2018-11-22T05:17:59.927Z,76.17
2018-11-22T05:18:59.875Z,76.27
2018-11-22T05:19:59.854Z,76.17
2018-11-22T05:20:59.569Z,76.31
2018-11-22T05:21:59.546Z,76.46
2018-11-22T05:22:59.526Z,76.36
2018-11-22T05:23:59.768Z,76.27
2018-11-22T05:24:59.479Z,75.89
2018-11-22T05:25:59.720Z,75.98
2018-11-22T05:26:59.705Z,76.46
2018-11-22T05:27:59.416Z,76.46
2018-11-22T05:28:59.400Z,76.08
2018-11-22T05:29:59.638Z,76.27
2018-11-22T05:30:59.617Z,75.89
2018-11-22T05:31:59.331Z,75.23
2018-11-22T05:32:59.310Z,75.13
2018-11-22T05:33:59.565Z,75.13
2018-11-22T05:34:59.532Z,75.51
2018-11-22T05:35:59.511Z,75.32
2018-11-22T05:36:59.229Z,75.79
2018-11-22T05:37:59.466Z,75.26
2018-11-22T05:38:59.450Z,75.32
2018-11-22T05:39:59.424Z,75.23
2018-11-22T05:40:59.404Z,74.95
2018-11-22T05:41:59.379Z,75.32
2018-11-22T05:42:59.362Z,75.36
2018-11-22T05:43:59.073Z,75.32
2018-11-22T05:44:59.052Z,74.95
2018-11-22T05:45:59.032Z,74.75
2018-11-22T05:47:02.607Z,74.28
2018-11-22T05:47:58.991Z,75.04
2018-11-22T05:48:58.968Z,74.75
2018-11-22T05:49:59.215Z,74.56
2018-11-22T05:50:59.186Z,74.88
2018-11-22T05:51:59.176Z,74.88
2018-11-22T05:52:58.888Z,74.66
2018-11-22T05:53:59.131Z,74.75
2018-11-22T05:54:59.103Z,74.75
2018-11-22T05:55:59.081Z,74.47
2018-11-22T05:56:59.059Z,73.61
2018-11-22T05:57:59.066Z,73.8
2018-11-22T05:58:58.759Z,73.61
2018-11-22T05:59:58.995Z,73.71
2018-11-22T06:00:58.713Z,73.71
2018-11-22T06:01:58.955Z,74.28
2018-11-22T06:02:58.935Z,74.09
2018-11-22T06:03:58.913Z,73.61
2018-11-22T06:04:58.637Z,73.52
2018-11-22T06:05:58.876Z,73.52
2018-11-22T06:06:58.581Z,73.52
2018-11-22T06:07:58.824Z,73.33
2018-11-22T06:08:58.802Z,73.05
2018-11-22T06:09:58.780Z,73.33
2018-11-22T06:10:58.762Z,72.77
2018-11-22T06:11:58.477Z,72.86
2018-11-22T06:12:58.721Z,72.67
2018-11-22T06:13:58.432Z,73.05
2018-11-22T06:14:58.681Z,72.89
2018-11-22T06:15:58.397Z,72.77
2018-11-22T06:16:58.638Z,73.52
2018-11-22T06:17:58.350Z,73.27
2018-11-22T06:18:58.592Z,73.33
2018-11-22T06:19:58.565Z,73.61
2018-11-22T06:20:58.565Z,73.52
2018-11-22T06:21:58.528Z,73.33
2018-11-22T06:22:58.244Z,73.71
2018-11-22T06:23:58.482Z,73.43
2018-11-22T06:25:03.603Z,73.33
2018-11-22T06:25:58.176Z,72.77
2018-11-22T06:26:58.417Z,73.43
2018-11-22T06:27:58.400Z,73.24
2018-11-22T06:28:58.379Z,72.48
2018-11-22T06:29:58.095Z,72.86
2018-11-22T06:30:58.332Z,73.33
2018-11-22T06:31:58.310Z,73.24
2018-11-22T06:32:58.289Z,73.71
2018-11-22T06:33:58.268Z,73.75
2018-11-22T06:34:57.986Z,73.71
2018-11-22T06:35:57.959Z,73.9
2018-11-22T06:36:57.943Z,73.05
2018-11-22T06:37:58.181Z,73.71
2018-11-22T06:38:58.159Z,73.9
2018-11-22T06:39:57.881Z,73.71
2018-11-22T06:40:58.128Z,73.8
2018-11-22T06:41:57.832Z,73.9
2018-11-22T06:42:58.081Z,73.24
2018-11-22T06:43:58.054Z,73.43
2018-11-22T06:44:58.031Z,73.9
2018-11-22T06:45:58.012Z,73.24
2018-11-22T06:46:57.990Z,72.71
2018-11-22T06:47:57.706Z,72.89
2018-11-22T06:48:57.963Z,73.43
2018-11-22T06:49:57.665Z,73.52
2018-11-22T06:50:58.288Z,73.71
2018-11-22T06:51:57.883Z,73.65
2018-11-22T06:52:57.874Z,73.61
2018-11-22T06:53:57.845Z,73.71
2018-11-22T06:54:57.823Z,73.71
2018-11-22T06:55:57.534Z,73.8
2018-11-22T06:56:57.772Z,73.52
2018-11-22T06:57:57.799Z,73.84
2018-11-22T06:58:57.733Z,73.99
2018-11-22T06:59:57.714Z,74.03
2018-11-22T07:00:57.430Z,73.9
2018-11-22T07:01:57.675Z,74.28
2018-11-22T07:02:57.392Z,73.9
2018-11-22T07:03:57.625Z,73.8
2018-11-22T07:04:57.340Z,73.8
2018-11-22T07:05:57.583Z,73.71
2018-11-22T07:06:57.501Z,73.99
2018-11-22T07:07:57.546Z,73.9
2018-11-22T07:08:57.518Z,73.99
2018-11-22T07:09:57.501Z,74.09
2018-11-22T07:10:57.475Z,74.47
2018-11-22T07:11:57.201Z,74.37
2018-11-22T07:12:57.169Z,74.41
2018-11-22T07:13:57.411Z,74.32
2018-11-22T07:14:57.390Z,74.47
2018-11-22T07:15:57.118Z,74.69
2018-11-22T07:16:57.352Z,74.41
2018-11-22T07:17:57.328Z,73.84
2018-11-22T07:18:57.043Z,73.84
2018-11-22T07:19:57.282Z,74.88
2018-11-22T07:20:57.264Z,74.56
2018-11-22T07:21:56.982Z,73.84
2018-11-22T07:22:57.222Z,74.13
2018-11-22T07:23:57.258Z,74.13
2018-11-22T07:24:56.915Z,74.32
2018-11-22T07:25:56.895Z,74.98
2018-11-22T07:26:57.133Z,75.26
2018-11-22T07:27:57.114Z,74.69
2018-11-22T07:28:57.096Z,74.41
2018-11-22T07:29:56.805Z,74.13
2018-11-22T07:30:57.049Z,74.03
2018-11-22T07:31:56.766Z,74.18
2018-11-22T07:32:57.010Z,74.03
2018-11-22T07:33:56.990Z,73.61
2018-11-22T07:34:56.700Z,73.56
2018-11-22T07:35:56.946Z,74.51
2018-11-22T07:36:56.663Z,74.51
2018-11-22T07:37:56.910Z,74.32
2018-11-22T07:38:56.624Z,74.03
2018-11-22T07:39:56.602Z,73.8
2018-11-22T07:40:56.843Z,74.13
2018-11-22T07:41:56.829Z,73.94
2018-11-22T07:42:56.798Z,74.32
2018-11-22T07:43:56.506Z,74.6
2018-11-22T07:44:56.752Z,74.6
2018-11-22T07:45:56.733Z,74.79
2018-11-22T07:46:56.705Z,74.79
2018-11-22T07:47:56.696Z,75.17
2018-11-22T07:48:56.666Z,75.64
2018-11-22T07:49:56.379Z,75.74
2018-11-22T07:50:56.364Z,75.74
2018-11-22T07:51:56.341Z,75.74
2018-11-22T07:52:58.493Z,76.31
2018-11-22T07:53:56.558Z,76.4
2018-11-22T07:54:56.536Z,76.5
2018-11-22T07:55:56.256Z,76.03
2018-11-22T07:56:56.233Z,76.5
2018-11-22T07:57:56.474Z,76.78
2018-11-22T07:58:56.466Z,76.31
2018-11-22T07:59:56.430Z,76.87
2018-11-22T08:00:56.146Z,76.68
2018-11-22T08:01:56.123Z,76.68
2018-11-22T08:02:56.366Z,76.68
2018-11-22T08:03:56.349Z,77.35
2018-11-22T08:04:56.114Z,77.25
2018-11-22T08:05:56.299Z,77.64
2018-11-22T08:06:56.019Z,77.16
2018-11-22T08:07:56.272Z,77.35
2018-11-22T08:08:55.978Z,77.25
2018-11-22T08:09:56.224Z,77.25
2018-11-22T08:10:56.199Z,77.35
2018-11-22T08:11:56.184Z,77.25
2018-11-22T08:12:56.014Z,77.25
2018-11-22T08:13:56.139Z,77.35
2018-11-22T08:14:56.125Z,77.25
2018-11-22T08:15:56.092Z,77.54
2018-11-22T08:16:56.068Z,77.92
2018-11-22T08:17:55.798Z,77.54
2018-11-22T08:18:56.031Z,77.83
2018-11-22T08:19:56.009Z,77.92
2018-11-22T08:20:55.732Z,78.39
2018-11-22T08:21:55.967Z,78.49
2018-11-22T08:22:55.946Z,78.11
2018-11-22T08:23:55.664Z,78.2
2018-11-22T08:24:56.275Z,78.3
2018-11-22T08:25:55.878Z,78.77
2018-11-22T08:26:55.595Z,79.06
2018-11-22T08:27:55.838Z,78.49
2018-11-22T08:28:55.552Z,78.77
2018-11-22T08:29:55.531Z,79.25
2018-11-22T08:30:55.509Z,79.34
2018-11-22T08:31:55.753Z,79.72
2018-11-22T08:32:55.470Z,79.63
2018-11-22T08:33:55.711Z,80
2018-11-22T08:34:55.692Z,79.53
2018-11-22T08:35:55.668Z,79.91
2018-11-22T08:36:55.645Z,79.91
2018-11-22T08:37:55.624Z,79.63
2018-11-22T08:38:55.338Z,79.06
2018-11-22T08:39:55.580Z,79.25
2018-11-22T08:40:55.298Z,79.91
2018-11-22T08:41:55.286Z,80.38
2018-11-22T08:42:57.717Z,80.29
2018-11-22T08:43:55.507Z,80.48
2018-11-22T08:44:55.224Z,79.82
2018-11-22T08:45:55.455Z,80
2018-11-22T08:46:55.168Z,80
2018-11-22T08:47:55.148Z,80.1
2018-11-22T08:48:55.126Z,80.95
2018-11-22T08:49:55.399Z,81.24
2018-11-22T08:50:55.348Z,81.24
2018-11-22T08:51:55.064Z,81.14
2018-11-22T08:52:55.307Z,82.09
2018-11-22T08:53:55.021Z,81.81
2018-11-22T08:54:55.263Z,81.9
2018-11-22T08:55:55.241Z,81.43
2018-11-22T08:56:55.238Z,82.18
2018-11-22T08:57:55.207Z,82.47
2018-11-22T08:58:55.176Z,82.37
2018-11-22T08:59:55.156Z,82.37
2018-11-22T09:00:54.869Z,82.28
2018-11-22T09:01:55.120Z,82.75
2018-11-22T09:02:55.093Z,82.66
2018-11-22T09:03:55.073Z,82.56
2018-11-22T09:04:55.060Z,82.56
2018-11-22T09:05:55.033Z,82.66
2018-11-22T09:06:55.206Z,83.13
2018-11-22T09:07:54.986Z,82.94
2018-11-22T09:08:54.963Z,83.13
2018-11-22T09:09:54.981Z,83.7
2018-11-22T09:10:54.924Z,83.32
2018-11-22T09:11:54.902Z,84.08
2018-11-22T09:12:54.628Z,84.27
2018-11-22T09:13:54.864Z,85.03
2018-11-22T09:14:54.839Z,84.94
2018-11-22T09:15:54.821Z,85.6
2018-11-22T09:16:54.799Z,84.94
2018-11-22T09:17:54.779Z,85.13
2018-11-22T09:18:54.504Z,85.41
2018-11-22T09:19:54.479Z,85.22
2018-11-22T09:20:54.714Z,84.94
2018-11-22T09:21:54.695Z,85.22
2018-11-22T09:22:54.675Z,85.31
2018-11-22T09:23:54.651Z,85.6
2018-11-22T09:24:54.661Z,84.74
2018-11-22T09:25:54.612Z,85.22
2018-11-22T09:26:54.338Z,85.41
2018-11-22T09:27:54.566Z,85.69
2018-11-22T09:28:54.556Z,86.55
2018-11-22T09:29:54.527Z,86.83
2018-11-22T09:30:54.509Z,87.54
2018-11-22T09:31:54.232Z,87.63
2018-11-22T09:32:54.215Z,87.68
2018-11-22T09:33:54.448Z,87.4
2018-11-22T09:34:54.426Z,87.49
2018-11-22T09:35:54.406Z,86.55
2018-11-22T09:36:54.380Z,86.59
2018-11-22T09:37:54.108Z,87.06
2018-11-22T09:38:54.347Z,86.78
2018-11-22T09:39:54.068Z,87.06
2018-11-22T09:40:54.297Z,86.49
2018-11-22T09:41:54.276Z,86.87
2018-11-22T09:42:54.255Z,86.78
2018-11-22T09:43:54.236Z,87.06
2018-11-22T09:44:54.215Z,86.68
2018-11-22T09:45:53.941Z,86.49
2018-11-22T09:46:54.181Z,86.97
2018-11-22T09:47:54.153Z,86.78
2018-11-22T09:48:54.138Z,88.1
2018-11-22T09:49:53.858Z,87.73
2018-11-22T09:50:55.085Z,88.2
2018-11-22T09:51:54.068Z,88.01
2018-11-22T09:52:54.049Z,87.73
2018-11-22T09:53:54.024Z,88.01
2018-11-22T09:54:53.747Z,88.01
2018-11-22T09:55:53.737Z,87.82
2018-11-22T09:56:53.962Z,87.25
2018-11-22T09:57:53.940Z,87.63
2018-11-22T09:58:53.928Z,88.2
2018-11-22T09:59:53.909Z,88.77
2018-11-22T10:00:53.884Z,88.48
2018-11-22T10:01:53.866Z,89.06
2018-11-22T10:02:53.638Z,89.15
2018-11-22T10:03:53.824Z,89.34
2018-11-22T10:04:54.068Z,89.15
2018-11-22T10:05:53.979Z,89.06
2018-11-22T10:06:53.758Z,89.91
2018-11-22T10:07:53.740Z,90
2018-11-22T10:08:53.720Z,90
2018-11-22T10:09:53.445Z,89.91
2018-11-22T10:10:53.423Z,90.48
2018-11-22T10:11:53.658Z,91.14
2018-11-22T10:12:53.638Z,90.76
2018-11-22T10:13:53.618Z,90.86
2018-11-22T10:14:53.599Z,90.29
2018-11-22T10:15:53.577Z,89.81
2018-11-22T10:16:53.603Z,89.72
2018-11-22T10:17:53.532Z,89.34
2018-11-22T10:18:53.517Z,89.15
2018-11-22T10:19:53.490Z,88.96
2018-11-22T10:20:53.217Z,90.29
2018-11-22T10:21:53.194Z,90.29
2018-11-22T10:22:53.182Z,89.91
2018-11-22T10:23:53.603Z,89.81
2018-11-22T10:24:53.390Z,88.58
2018-11-22T10:25:53.372Z,89.62
2018-11-22T10:26:53.349Z,91.05
2018-11-22T10:27:53.329Z,90.76
2018-11-22T10:28:53.306Z,90.95
2018-11-22T10:29:53.034Z,91.42
2018-11-22T10:30:53.267Z,92.18
2018-11-22T10:31:53.438Z,92.28
2018-11-22T10:32:52.973Z,91.99
2018-11-22T10:33:53.205Z,91.42
2018-11-22T10:34:53.196Z,91.52
2018-11-22T10:35:53.164Z,90.76
2018-11-22T10:36:52.891Z,91.42
2018-11-22T10:37:53.373Z,92.09
2018-11-22T10:38:53.105Z,91.42
2018-11-22T10:39:52.829Z,92.09
2018-11-22T10:40:53.070Z,91.52
2018-11-22T10:41:53.044Z,92.28
2018-11-22T10:42:53.024Z,92.09
2018-11-22T10:43:53.003Z,92.18
2018-11-22T10:44:52.986Z,91.9
2018-11-22T10:45:52.963Z,92.47
2018-11-22T10:46:52.937Z,92.18
2018-11-22T10:47:52.919Z,92.18
2018-11-22T10:48:52.901Z,92.57
2018-11-22T10:49:53.922Z,92.47
2018-11-22T10:50:52.861Z,92.57
2018-11-22T10:51:52.837Z,93.89
2018-11-22T10:52:52.818Z,92.85
2018-11-22T10:53:52.795Z,95.03
2018-11-22T10:54:52.782Z,94.27
2018-11-22T10:55:52.819Z,93.61
2018-11-22T10:56:52.738Z,93.61
2018-11-22T10:57:56.454Z,94.27
2018-11-22T10:58:52.721Z,94.18
2018-11-22T10:59:52.423Z,93.8
2018-11-22T11:00:52.658Z,93.51
2018-11-22T11:01:52.632Z,94.08
2018-11-22T11:02:52.615Z,93.99
2018-11-22T11:03:52.599Z,93.7
2018-11-22T11:04:52.572Z,93.23
2018-11-22T11:05:52.311Z,93.13
2018-11-22T11:06:52.537Z,93.23
2018-11-22T11:07:52.517Z,92.47
2018-11-22T11:08:52.487Z,93.18
2018-11-22T11:09:52.473Z,93.13
2018-11-22T11:10:52.202Z,92.52
2018-11-22T11:11:52.432Z,92.47
2018-11-22T11:12:52.157Z,92.85
2018-11-22T11:13:52.135Z,93.27
2018-11-22T11:14:52.122Z,93.7
2018-11-22T11:15:52.356Z,93.61
2018-11-22T11:16:52.331Z,93.7
2018-11-22T11:17:52.311Z,93.56
2018-11-22T11:18:52.043Z,93.89
2018-11-22T11:19:52.276Z,94.27
2018-11-22T11:20:52.004Z,94.03
2018-11-22T11:21:51.980Z,93.65
2018-11-22T11:22:52.216Z,93.84
2018-11-22T11:23:52.191Z,95.55
2018-11-22T11:24:51.915Z,95.55
2018-11-22T11:25:51.892Z,94.98
2018-11-22T11:26:52.175Z,94.7
2018-11-22T11:27:52.110Z,94.6
2018-11-22T11:28:51.834Z,94.13
2018-11-22T11:29:51.815Z,93.65
2018-11-22T11:30:52.057Z,94.23
2018-11-22T11:31:52.027Z,93.65
2018-11-22T11:32:52.010Z,94.03
2018-11-22T11:33:51.738Z,94.13
2018-11-22T11:34:51.715Z,94.79
2018-11-22T11:35:51.948Z,94.32
2018-11-22T11:36:51.928Z,95.36
2018-11-22T11:37:51.913Z,94.98
2018-11-22T11:38:51.887Z,94.51
2018-11-22T11:39:51.867Z,93.75
2018-11-22T11:40:51.845Z,94.6
2018-11-22T11:41:51.827Z,94.32
2018-11-22T11:42:51.555Z,96.12
2018-11-22T11:43:51.789Z,97.07
2018-11-22T11:44:51.765Z,96.97
2018-11-22T11:45:51.492Z,97.07
2018-11-22T11:46:51.731Z,96.41
2018-11-22T11:47:51.456Z,96.22
2018-11-22T11:48:51.533Z,95.55
2018-11-22T11:49:51.686Z,95.46
2018-11-22T11:50:51.396Z,95.65
2018-11-22T11:51:51.628Z,96.22
2018-11-22T11:52:51.611Z,96.5
2018-11-22T11:53:51.584Z,96.97
2018-11-22T11:54:51.565Z,96.97
2018-11-22T11:55:51.559Z,97.45
2018-11-22T11:56:51.535Z,96.88
2018-11-22T11:57:51.254Z,96.88
2018-11-22T11:58:51.488Z,97.17
2018-11-22T11:59:51.471Z,97.45
2018-11-22T12:00:51.204Z,96.5
2018-11-22T12:01:51.452Z,96.5
2018-11-22T12:02:51.157Z,96.41
2018-11-22T12:03:51.389Z,96.69
2018-11-22T12:04:51.120Z,98.21
2018-11-22T12:05:51.352Z,98.21
2018-11-22T12:06:51.325Z,97.36
2018-11-22T12:07:51.054Z,97.07
2018-11-22T12:08:51.288Z,97.55
2018-11-22T12:09:56.196Z,98.02
2018-11-22T12:10:51.253Z,98.21
2018-11-22T12:11:50.975Z,98.49
2018-11-22T12:12:51.212Z,98.4
2018-11-22T12:13:51.197Z,97.36
2018-11-22T12:14:51.190Z,98.4
2018-11-22T12:15:50.857Z,98.68
2018-11-22T12:16:50.875Z,98.87
2018-11-22T12:17:50.854Z,99.06
2018-11-22T12:18:51.091Z,98.49
2018-11-22T12:19:51.073Z,97.64
2018-11-22T12:20:50.795Z,97.45
2018-11-22T12:21:51.031Z,98.11
2018-11-22T12:22:51.017Z,97.36
2018-11-22T12:23:50.990Z,97.26
2018-11-22T12:24:50.720Z,98.59
2018-11-22T12:25:50.700Z,99.77
2018-11-22T12:26:50.679Z,99.99
2018-11-22T12:27:50.921Z,99.99
2018-11-22T12:28:50.894Z,99.44
2018-11-22T12:29:50.621Z,99.63
2018-11-22T12:30:50.864Z,99.63
2018-11-22T12:31:50.841Z,99.06
2018-11-22T12:32:50.816Z,99.44
2018-11-22T12:33:50.800Z,99.99
2018-11-22T12:34:50.777Z,99.99
2018-11-22T12:35:50.755Z,99.44
2018-11-22T12:36:50.746Z,98.87
2018-11-22T12:37:50.461Z,98.87
2018-11-22T12:38:50.444Z,99.06
2018-11-22T12:39:50.681Z,99.99
2018-11-22T12:40:50.659Z,99.99
2018-11-22T12:41:50.650Z,98.87
2018-11-22T12:42:50.363Z,99.16
2018-11-22T12:43:50.345Z,98.26
2018-11-22T12:44:50.581Z,97.83
2018-11-22T12:45:51.258Z,97.88
2018-11-22T12:46:50.561Z,97.6
2018-11-22T12:47:50.525Z,98.16
2018-11-22T12:48:50.507Z,98.54
2018-11-22T12:49:50.487Z,99.49
2018-11-22T12:50:50.460Z,99.21
2018-11-22T12:51:50.184Z,98.54
2018-11-22T12:52:50.431Z,99.11
2018-11-22T12:53:50.403Z,98.54
2018-11-22T12:54:50.405Z,97.97
2018-11-22T12:55:50.113Z,98.73